Time;durP1;ratioP1;P1;durP2;ratioP2;P2;SDS_P1;SDS_P2;PMS_P1;PMS_P2;Temp;Humidity;BMP_temperature;BMP_pressure;BME280_temperature;BME280_humidity;BME280_pressure;Samples;Min_cycle;Max_cycle;Signal;HPM_P1;HPM_P2
2022/09/29 00:01:49;;;;;;;17.15;10.07;;;16.10;99.90;;;;;;4932854;29;20047;-51
2022/09/29 00:04:15;;;;;;;17.55;11.23;;;16.00;99.90;;;;;;4933474;29;20067;-49
2022/09/29 00:06:40;;;;;;;14.27;10.55;;;16.00;99.90;;;;;;4932956;29;20035;-49
2022/09/29 00:09:06;;;;;;;14.10;10.23;;;16.00;99.90;;;;;;4933811;29;20040;-52
2022/09/29 00:11:32;;;;;;;15.95;10.00;;;16.10;99.90;;;;;;4932575;29;20075;-51
2022/09/29 00:13:58;;;;;;;13.82;10.25;;;16.10;99.90;;;;;;4921981;28;20044;-49
2022/09/29 00:16:23;;;;;;;19.23;10.45;;;16.10;99.90;;;;;;4971978;28;20426;-49
2022/09/29 00:18:52;;;;;;;16.48;10.32;;;16.10;99.90;;;;;;4976769;28;20031;-49
2022/09/29 00:21:19;;;;;;;15.60;9.45;;;16.20;99.90;;;;;;4976188;28;20034;-49
2022/09/29 00:23:45;;;;;;;14.05;9.43;;;16.10;99.90;;;;;;4975891;28;20038;-47
2022/09/29 00:26:16;;;;;;;12.32;8.77;;;16.10;99.90;;;;;;4967810;28;20027;-49
2022/09/29 00:28:51;;;;;;;13.82;9.43;;;16.00;99.90;;;;;;4976689;28;20022;-49
2022/09/29 00:31:17;;;;;;;12.57;9.43;;;16.00;99.90;;;;;;4975592;28;20097;-49
2022/09/29 00:33:44;;;;;;;13.60;8.77;;;15.90;99.90;;;;;;4975283;28;20034;-49
2022/09/29 00:36:11;;;;;;;12.73;9.40;;;;;;;;;;4974850;28;20398;-50
2022/09/29 00:38:37;;;;;;;14.57;9.38;;;15.80;99.90;;;;;;4977256;28;20027;-48
2022/09/29 00:41:04;;;;;;;13.93;9.80;;;15.90;99.90;;;;;;4971249;28;20133;-51
2022/09/29 00:43:51;;;;;;;14.85;9.00;;;15.90;99.90;;;;;;4989576;28;20501;-48
2022/09/29 00:46:45;;;;;;;13.93;9.55;;;16.00;99.90;;;;;;4975157;28;20036;-50
2022/09/29 00:49:34;;;;;;;13.00;9.38;;;16.10;99.90;;;;;;4932505;29;20047;-51
2022/09/29 00:52:11;;;;;;;14.45;9.00;;;16.00;99.90;;;;;;4932030;29;20059;-51
2022/09/29 00:54:48;;;;;;;12.75;8.52;;;16.00;99.90;;;;;;4929142;29;20067;-48
2022/09/29 00:57:18;;;;;;;16.42;6.25;;;16.10;99.90;;;;;;4926497;29;20122;-50
2022/09/29 00:59:54;;;;;;;11.70;6.53;;;16.00;99.90;;;;;;4932751;29;20143;-50
2022/09/29 01:02:21;;;;;;;8.90;5.60;;;16.00;99.90;;;;;;4932505;29;20130;-52
2022/09/29 01:04:51;;;;;;;6.68;4.55;;;16.00;99.90;;;;;;4932184;29;20517;-49
2022/09/29 01:07:18;;;;;;;7.00;3.70;;;;;;;;;;4932583;29;20148;-48
2022/09/29 01:09:44;;;;;;;8.38;3.80;;;16.00;99.90;;;;;;4932385;29;20472;-52
2022/09/29 01:12:10;;;;;;;8.00;4.35;;;16.10;99.90;;;;;;4932606;29;20036;-49
2022/09/29 01:14:38;;;;;;;7.22;3.97;;;16.10;99.90;;;;;;4932437;29;20042;-49
2022/09/29 01:17:04;;;;;;;10.35;4.88;;;16.20;99.90;;;;;;4933105;29;20039;-51
2022/09/29 01:19:48;;;;;;;6.07;3.00;;;16.30;99.90;;;;;;4932539;29;20492;-48
2022/09/29 01:22:22;;;;;;;8.65;3.88;;;16.40;99.90;;;;;;4932505;29;20058;-47
2022/09/29 01:25:02;;;;;;;8.73;3.88;;;16.30;99.90;;;;;;4899938;29;20578;-50
2022/09/29 01:27:52;;;;;;;7.30;3.78;;;16.30;99.90;;;;;;5007964;28;20073;-49
2022/09/29 01:30:28;;;;;;;6.03;3.03;;;16.30;99.90;;;;;;4971719;28;20046;-52
2022/09/29 01:33:07;;;;;;;6.97;2.70;;;16.40;99.90;;;;;;4972451;28;20035;-51
2022/09/29 01:35:47;;;;;;;10.30;3.95;;;16.40;99.90;;;;;;4972674;28;20077;-48
2022/09/29 01:38:25;;;;;;;6.53;3.60;;;16.40;99.90;;;;;;4975805;28;20026;-49
2022/09/29 01:41:16;;;;;;;11.00;4.53;;;16.40;99.90;;;;;;4978252;28;20471;-51
2022/09/29 01:43:54;;;;;;;6.10;4.00;;;16.50;99.90;;;;;;4986719;28;20367;-49
2022/09/29 01:46:32;;;;;;;8.43;4.63;;;16.50;99.90;;;;;;4977945;28;20474;-51
2022/09/29 01:49:00;;;;;;;8.45;3.72;;;16.50;99.90;;;;;;4980251;28;20387;-49
2022/09/29 01:51:54;;;;;;;9.07;4.22;;;16.50;99.90;;;;;;4978360;28;20046;-49
2022/09/29 01:54:32;;;;;;;9.52;4.75;;;16.50;99.90;;;;;;4976536;28;20042;-50
2022/09/29 01:57:06;;;;;;;8.95;4.47;;;16.50;99.90;;;;;;4971851;28;20098;-48
2022/09/29 01:59:47;;;;;;;6.18;3.40;;;16.40;99.90;;;;;;4975214;28;20049;-51
2022/09/29 02:02:20;;;;;;;6.80;3.45;;;16.40;99.90;;;;;;4975178;28;20422;-51
2022/09/29 02:04:53;;;;;;;6.93;3.67;;;16.40;99.90;;;;;;4978636;28;20498;-50
2022/09/29 02:07:25;;;;;;;;;;;16.40;99.90;;;;;;4975622;28;20039;-51
2022/09/29 02:09:58;;;;;;;8.88;3.60;;;16.30;99.90;;;;;;4977381;28;19949;-51
2022/09/29 02:12:28;;;;;;;9.40;3.88;;;16.30;99.90;;;;;;4976364;28;20046;-51
2022/09/29 02:14:55;;;;;;;5.45;2.90;;;16.30;99.90;;;;;;4973802;28;20027;-52
2022/09/29 02:17:28;;;;;;;15.93;4.55;;;16.30;99.90;;;;;;4976387;28;20211;-49
2022/09/29 02:19:54;;;;;;;7.25;2.47;;;16.40;99.90;;;;;;4978400;28;20030;-47
2022/09/29 02:22:20;;;;;;;6.57;2.70;;;16.40;99.90;;;;;;4923965;28;20051;-49
2022/09/29 02:24:48;;;;;;;5.70;2.63;;;16.50;99.90;;;;;;4940674;29;20047;-49
2022/09/29 02:27:14;;;;;;;6.60;2.75;;;16.60;99.90;;;;;;4940788;29;20059;-50
2022/09/29 02:29:40;;;;;;;6.63;3.00;;;16.70;99.90;;;;;;4938681;28;20036;-50
2022/09/29 02:32:08;;;;;;;4.38;2.67;;;16.70;99.90;;;;;;4953367;28;20130;-50
2022/09/29 02:34:40;;;;;;;6.20;3.00;;;16.70;99.90;;;;;;4956169;28;20094;-48
2022/09/29 02:37:17;;;;;;;5.85;2.72;;;16.70;99.90;;;;;;4956572;28;20047;-48
2022/09/29 02:40:06;;;;;;;7.60;3.30;;;16.70;99.90;;;;;;4954972;28;20035;-48
2022/09/29 02:42:53;;;;;;;5.25;2.50;;;16.60;99.90;;;;;;4957662;28;20082;-48
2022/09/29 02:45:35;;;;;;;6.82;3.05;;;16.60;99.90;;;;;;4938095;28;20055;-50
2022/09/29 02:48:00;;;;;;;;;;;16.60;99.90;;;;;;4954265;28;20179;-51
2022/09/29 02:50:35;;;;;;;7.97;3.75;;;16.60;99.90;;;;;;4956033;28;20005;-49
2022/09/29 02:53:11;;;;;;;10.85;4.28;;;16.70;99.90;;;;;;4962546;28;20058;-49
2022/09/29 02:55:49;;;;;;;11.18;5.32;;;16.70;99.90;;;;;;4973285;28;20022;-49
2022/09/29 02:58:22;;;;;;;5.90;3.92;;;16.60;99.90;;;;;;4978087;28;20031;-51
2022/09/29 03:00:48;;;;;;;8.50;3.53;;;16.30;99.90;;;;;;4977123;28;20039;-52
2022/09/29 03:03:14;;;;;;;7.53;3.63;;;16.00;99.90;;;;;;4975303;28;20150;-49
2022/09/29 03:05:39;;;;;;;6.00;3.13;;;16.00;99.90;;;;;;4976457;28;20582;-49
2022/09/29 03:08:05;;;;;;;7.35;3.53;;;16.00;99.90;;;;;;4980768;28;20434;-52
2022/09/29 03:10:31;;;;;;;9.95;3.60;;;16.10;99.90;;;;;;4984437;28;20026;-52
2022/09/29 03:12:57;;;;;;;6.32;3.67;;;16.00;99.90;;;;;;4979308;28;20073;-50
2022/09/29 03:15:23;;;;;;;8.15;3.30;;;15.90;99.90;;;;;;4976293;28;20054;-51
2022/09/29 03:17:49;;;;;;;7.88;4.07;;;15.90;99.90;;;;;;4956973;28;20042;-52
2022/09/29 03:20:15;;;;;;;6.50;2.92;;;16.00;99.90;;;;;;4971779;28;20050;-52
2022/09/29 03:22:40;;;;;;;12.75;3.90;;;15.90;99.90;;;;;;4975444;28;20134;-49
2022/09/29 03:25:07;;;;;;;6.82;3.22;;;15.90;99.90;;;;;;4975103;28;20078;-50
2022/09/29 03:27:35;;;;;;;8.88;4.43;;;15.90;99.90;;;;;;4993731;28;20049;-49
2022/09/29 03:30:01;;;;;;;7.47;3.70;;;15.90;99.90;;;;;;4977086;28;20074;-52
2022/09/29 03:32:26;;;;;;;6.78;4.47;;;16.00;99.90;;;;;;4982403;28;20661;-52
2022/09/29 03:34:52;;;;;;;8.27;4.07;;;16.00;99.90;;;;;;4971372;28;20091;-50
2022/09/29 03:37:18;;;;;;;8.27;4.15;;;16.10;99.90;;;;;;4975751;28;20089;-50
2022/09/29 03:39:44;;;;;;;7.53;4.53;;;16.20;99.90;;;;;;4975099;28;20411;-51
2022/09/29 03:42:09;;;;;;;9.10;4.40;;;16.20;99.90;;;;;;4975582;28;20038;-50
2022/09/29 03:44:35;;;;;;;9.07;3.70;;;16.30;99.90;;;;;;4977405;28;20026;-50
2022/09/29 03:47:01;;;;;;;7.72;3.72;;;16.30;99.90;;;;;;4975833;28;20035;-51
2022/09/29 03:49:27;;;;;;;8.80;3.45;;;16.30;99.90;;;;;;4977409;28;20023;-50
2022/09/29 03:51:52;;;;;;;10.57;3.65;;;16.40;99.90;;;;;;4977194;28;20177;-51
2022/09/29 03:54:18;;;;;;;8.55;4.07;;;16.50;99.90;;;;;;4978332;28;20035;-49
2022/09/29 03:56:44;;;;;;;6.10;4.13;;;16.50;99.90;;;;;;4954490;28;20441;-50
2022/09/29 03:59:11;;;;;;;10.30;3.53;;;16.50;99.90;;;;;;4978235;28;20030;-48
2022/09/29 04:01:37;;;;;;;8.48;2.80;;;16.50;99.90;;;;;;4974889;28;20047;-47
2022/09/29 04:04:05;;;;;;;6.03;2.75;;;16.50;99.90;;;;;;4980855;28;20521;-51
2022/09/29 04:06:31;;;;;;;6.90;2.53;;;16.30;99.90;;;;;;4974391;28;20506;-48
2022/09/29 04:08:57;;;;;;;11.30;3.95;;;16.20;99.90;;;;;;4976506;28;20022;-50
2022/09/29 04:11:22;;;;;;;7.75;3.13;;;16.20;99.90;;;;;;4955252;28;20045;-50
2022/09/29 04:13:48;;;;;;;8.77;3.10;;;16.20;99.90;;;;;;4972441;28;20089;-48
2022/09/29 04:16:14;;;;;;;7.10;2.50;;;16.20;99.90;;;;;;4978859;28;20023;-49
2022/09/29 04:18:40;;;;;;;10.40;2.63;;;16.20;99.90;;;;;;4976628;28;20046;-47
2022/09/29 04:21:07;;;;;;;6.00;3.15;;;16.20;99.90;;;;;;4974977;28;20042;-48
2022/09/29 04:23:33;;;;;;;5.47;2.63;;;16.20;99.90;;;;;;4970115;28;20363;-48
2022/09/29 04:26:02;;;;;;;3.80;1.85;;;;;;;;;;4980215;28;20050;-51
2022/09/29 04:28:30;;;;;;;6.20;2.30;;;;;;;;;;4978175;28;20089;-49
2022/09/29 04:30:56;;;;;;;1.92;1.30;;;15.80;99.90;;;;;;5002434;28;20554;-49
2022/09/29 04:33:22;;;;;;;2.67;1.73;;;15.70;99.90;;;;;;4978149;28;20035;-50
2022/09/29 04:35:48;;;;;;;3.45;1.45;;;15.80;99.90;;;;;;4988232;28;20118;-47
2022/09/29 04:38:13;;;;;;;4.97;2.13;;;15.80;99.90;;;;;;4975617;28;20035;-50
2022/09/29 04:40:39;;;;;;;5.15;1.77;;;15.80;99.90;;;;;;4974366;28;20482;-52
2022/09/29 04:43:05;;;;;;;4.00;2.40;;;15.80;99.90;;;;;;4976637;28;20663;-49
2022/09/29 04:45:30;;;;;;;7.32;2.47;;;15.90;99.90;;;;;;4977595;28;20385;-49
2022/09/29 04:47:56;;;;;;;3.28;1.80;;;15.90;99.90;;;;;;4973893;28;20049;-51
2022/09/29 04:50:22;;;;;;;4.28;2.13;;;15.80;99.90;;;;;;4976446;28;20045;-49
2022/09/29 04:52:48;;;;;;;3.63;1.80;;;15.80;99.90;;;;;;4974418;28;20027;-51
2022/09/29 04:55:14;;;;;;;4.20;1.70;;;15.90;99.90;;;;;;4976152;28;20371;-49
2022/09/29 04:57:42;;;;;;;5.80;1.90;;;16.00;99.90;;;;;;4971531;28;20035;-50
2022/09/29 05:00:09;;;;;;;4.78;1.60;;;16.10;99.90;;;;;;4974652;28;20030;-50
2022/09/29 05:02:35;;;;;;;7.13;2.58;;;16.20;99.90;;;;;;4979907;28;20049;-51
2022/09/29 05:05:02;;;;;;;8.30;2.30;;;16.10;99.90;;;;;;4977674;28;20031;-52
2022/09/29 05:07:28;;;;;;;5.63;2.40;;;16.10;99.90;;;;;;4978699;28;20029;-51
2022/09/29 05:09:53;;;;;;;4.60;2.72;;;16.10;99.90;;;;;;4982354;28;20035;-49
2022/09/29 05:12:19;;;;;;;6.07;2.25;;;16.10;99.90;;;;;;4986706;28;20536;-49
2022/09/29 05:14:45;;;;;;;5.90;1.50;;;16.10;99.90;;;;;;4957008;28;20395;-51
2022/09/29 05:17:11;;;;;;;7.70;2.25;;;16.10;99.90;;;;;;4975454;28;20047;-50
2022/09/29 05:19:37;;;;;;;10.35;2.65;;;16.00;99.90;;;;;;4973525;28;20046;-50
2022/09/29 05:22:03;;;;;;;6.32;2.13;;;16.00;99.90;;;;;;4974420;28;20039;-50
2022/09/29 05:24:29;;;;;;;8.10;2.70;;;16.00;99.90;;;;;;4983019;28;20039;-51
2022/09/29 05:26:54;;;;;;;5.40;2.50;;;16.00;99.90;;;;;;4973611;28;20052;-48
2022/09/29 05:29:20;;;;;;;6.43;2.20;;;16.00;99.90;;;;;;4948642;28;20039;-51
2022/09/29 05:31:46;;;;;;;5.90;2.47;;;15.90;99.90;;;;;;4983189;28;20033;-50
2022/09/29 05:34:12;;;;;;;3.75;1.80;;;15.80;99.90;;;;;;4977212;28;20105;-52
2022/09/29 05:36:37;;;;;;;2.42;1.85;;;15.80;99.90;;;;;;4963725;28;20088;-48
2022/09/29 05:39:03;;;;;;;5.00;1.92;;;15.80;99.90;;;;;;4983569;28;20073;-48
2022/09/29 05:41:29;;;;;;;5.65;2.45;;;15.80;99.90;;;;;;4962924;28;20047;-49
2022/09/29 05:43:55;;;;;;;5.80;1.90;;;15.80;99.90;;;;;;4976394;28;20038;-51
2022/09/29 05:46:22;;;;;;;7.75;4.18;;;15.80;99.90;;;;;;4953689;28;20134;-49
2022/09/29 05:48:50;;;;;;;9.85;3.08;;;15.70;99.90;;;;;;4984788;28;20026;-49
2022/09/29 05:51:19;;;;;;;7.50;3.05;;;15.70;99.90;;;;;;4978202;28;20047;-50
2022/09/29 05:53:45;;;;;;;7.47;2.80;;;15.70;99.90;;;;;;4980271;28;20057;-49
2022/09/29 05:56:19;;;;;;;8.25;3.40;;;15.70;99.90;;;;;;4998429;28;20035;-50
2022/09/29 05:58:45;;;;;;;6.93;2.45;;;15.80;99.90;;;;;;4987495;28;20022;-50
2022/09/29 06:01:14;;;;;;;10.05;3.30;;;15.70;99.90;;;;;;4977245;28;20041;-51
2022/09/29 06:03:40;;;;;;;10.38;3.95;;;15.70;99.90;;;;;;4981021;28;20109;-49
2022/09/29 06:06:16;;;;;;;6.80;3.22;;;15.80;99.90;;;;;;4978045;28;20031;-51
2022/09/29 06:08:43;;;;;;;11.25;3.95;;;15.90;99.90;;;;;;4982799;28;20045;-51
2022/09/29 06:11:12;;;;;;;9.10;3.80;;;16.00;99.90;;;;;;5002014;28;20046;-51
2022/09/29 06:13:41;;;;;;;6.38;3.25;;;16.00;99.90;;;;;;4985307;28;20065;-51
2022/09/29 06:16:08;;;;;;;8.45;5.15;;;16.20;99.90;;;;;;4978037;28;20062;-49
2022/09/29 06:18:34;;;;;;;9.70;3.63;;;16.20;99.90;;;;;;4982703;28;20173;-48
2022/09/29 06:21:08;;;;;;;8.73;3.15;;;16.30;99.90;;;;;;4974764;28;20069;-49
2022/09/29 06:23:34;;;;;;;11.68;4.15;;;16.30;99.90;;;;;;4955945;28;20093;-49
2022/09/29 06:26:03;;;;;;;10.50;4.65;;;16.50;99.90;;;;;;4977165;28;20031;-51
2022/09/29 06:28:30;;;;;;;9.02;3.45;;;16.80;99.90;;;;;;4977383;28;20030;-49
2022/09/29 06:31:04;;;;;;;6.22;3.47;;;17.10;99.90;;;;;;4971357;28;20039;-49
2022/09/29 06:33:31;;;;;;;7.65;4.28;;;17.20;99.90;;;;;;5010331;28;20493;-49
2022/09/29 06:38:46;;;;;;;5.90;3.22;;;17.50;99.90;;;;;;5011095;28;20048;-49
2022/09/29 06:41:12;;;;;;;13.02;5.65;;;17.80;99.90;;;;;;5006636;28;20346;-52
2022/09/29 06:43:37;;;;;;;8.32;6.20;;;17.80;99.90;;;;;;5010200;28;20156;-48
2022/09/29 06:46:04;;;;;;;7.97;4.97;;;17.70;99.90;;;;;;5010342;28;20041;-53
2022/09/29 06:48:29;;;;;;;8.77;3.75;;;17.80;99.90;;;;;;5012067;28;20079;-47
2022/09/29 06:50:56;;;;;;;4.50;2.42;;;17.70;99.90;;;;;;5011787;28;20449;-50
2022/09/29 06:53:22;;;;;;;5.53;2.50;;;17.70;99.90;;;;;;4977361;28;20075;-49
2022/09/29 06:55:55;;;;;;;7.95;3.30;;;17.70;99.90;;;;;;4999224;28;20046;-48
2022/09/29 06:58:22;;;;;;;9.60;3.85;;;18.00;99.90;;;;;;4982379;28;20040;-49
2022/09/29 07:00:48;;;;;;;7.65;3.33;;;18.20;99.90;;;;;;5009142;28;20072;-50
2022/09/29 07:03:14;;;;;;;5.07;2.53;;;18.40;99.90;;;;;;5010223;28;20444;-47
2022/09/29 07:05:40;;;;;;;7.40;2.60;;;;;;;;;;5007087;28;20197;-48
2022/09/29 07:08:06;;;;;;;6.15;1.92;;;18.80;99.90;;;;;;5009770;28;20406;-48
2022/09/29 07:10:32;;;;;;;2.58;1.55;;;19.10;99.90;;;;;;4998403;28;20050;-50
2022/09/29 07:12:58;;;;;;;5.53;2.30;;;19.30;99.90;;;;;;4982847;28;20027;-48
2022/09/29 07:15:33;;;;;;;5.72;2.47;;;;;;;;;;4986606;28;20026;-49
2022/09/29 07:18:00;;;;;;;6.35;3.10;;;19.90;99.90;;;;;;4983026;28;20471;-48
2022/09/29 07:20:27;;;;;;;5.05;2.30;;;19.90;99.90;;;;;;4979813;28;20124;-49
2022/09/29 07:22:54;;;;;;;6.90;2.35;;;;;;;;;;4986755;28;20084;-47
2022/09/29 07:25:20;;;;;;;7.82;3.13;;;20.30;99.90;;;;;;4982508;28;20126;-50
2022/09/29 07:27:47;;;;;;;6.40;2.45;;;;;;;;;;4980466;28;20034;-50
2022/09/29 07:30:13;;;;;;;4.55;2.30;;;20.80;99.90;;;;;;4975005;28;20121;-48
2022/09/29 07:32:39;;;;;;;4.32;2.47;;;21.10;99.90;;;;;;4982114;28;20023;-46
2022/09/29 07:35:06;;;;;;;6.63;2.60;;;21.70;99.90;;;;;;4992125;28;20052;-50
2022/09/29 07:37:32;;;;;;;5.78;2.83;;;21.90;99.90;;;;;;4980178;28;20360;-50
2022/09/29 07:39:58;;;;;;;4.65;2.47;;;;;;;;;;4984638;28;20037;-49
2022/09/29 07:42:24;;;;;;;3.30;1.90;;;;;;;;;;4977237;28;20038;-48
2022/09/29 07:44:50;;;;;;;3.72;2.08;;;;;;;;;;4964982;28;20043;-46
2022/09/29 07:47:16;;;;;;;4.35;1.15;;;24.80;99.90;;;;;;4978156;28;20062;-47
2022/09/29 07:49:42;;;;;;;6.25;2.00;;;24.90;99.90;;;;;;4982476;28;20031;-47
2022/09/29 07:52:07;;;;;;;5.68;2.40;;;24.80;99.90;;;;;;4984960;28;20047;-48
2022/09/29 07:54:33;;;;;;;5.15;2.05;;;24.70;99.90;;;;;;4989019;28;20027;-46
2022/09/29 07:57:02;;;;;;;4.38;2.00;;;24.70;99.90;;;;;;4981776;28;20041;-47
2022/09/29 07:59:28;;;;;;;4.03;1.70;;;25.00;99.90;;;;;;4981720;28;20125;-50
2022/09/29 08:01:54;;;;;;;3.10;1.42;;;24.40;99.90;;;;;;4972864;28;20038;-50
2022/09/29 08:04:20;;;;;;;5.35;1.90;;;24.00;99.90;;;;;;4982475;28;20034;-49
2022/09/29 08:06:46;;;;;;;3.53;1.67;;;23.50;99.90;;;;;;4952417;28;20050;-49
2022/09/29 08:09:12;;;;;;;4.32;1.80;;;23.10;99.90;;;;;;4984036;28;20030;-48
2022/09/29 08:11:41;;;;;;;7.30;2.35;;;22.80;99.90;;;;;;4982253;28;20035;-47
2022/09/29 08:14:09;;;;;;;7.43;2.28;;;23.00;99.90;;;;;;4976102;28;20035;-47
2022/09/29 08:16:35;;;;;;;7.40;3.13;;;23.00;99.90;;;;;;4982994;28;20022;-48
2022/09/29 08:19:01;;;;;;;4.03;2.17;;;23.30;99.90;;;;;;4982785;28;20050;-48
2022/09/29 08:21:28;;;;;;;6.25;2.75;;;23.50;99.90;;;;;;4977495;28;20039;-49
2022/09/29 08:23:54;;;;;;;5.18;2.05;;;;;;;;;;4977406;28;20038;-49
2022/09/29 08:26:21;;;;;;;6.10;2.13;;;;;;;;;;4985243;28;20418;-49
2022/09/29 08:28:48;;;;;;;4.35;2.50;;;;;;;;;;4981271;28;20114;-47
2022/09/29 08:31:19;;;;;;;5.88;1.92;;;26.60;99.90;;;;;;4985522;28;20042;-47
2022/09/29 08:33:45;;;;;;;4.90;1.97;;;;;;;;;;4975419;28;20031;-49
2022/09/29 08:36:15;;;;;;;5.25;1.52;;;27.60;99.90;;;;;;5002984;28;20050;-47
2022/09/29 08:38:46;;;;;;;4.00;1.77;;;27.20;99.90;;;;;;4969724;28;20039;-46
2022/09/29 08:41:21;;;;;;;;;;;26.50;99.90;;;;;;4981328;28;20039;-47
2022/09/29 08:43:50;;;;;;;6.43;2.20;;;25.60;99.90;;;;;;4982237;28;20354;-48
2022/09/29 08:46:32;;;;;;;6.28;1.77;;;25.00;99.90;;;;;;4973809;28;20261;-47
2022/09/29 08:49:02;;;;;;;6.75;2.45;;;24.60;99.90;;;;;;4972746;28;20463;-50
2022/09/29 08:51:37;;;;;;;3.53;2.05;;;24.40;99.90;;;;;;5005570;28;20149;-47
2022/09/29 08:54:15;;;;;;;4.88;1.73;;;24.50;99.90;;;;;;4967538;28;20031;-47
2022/09/29 08:56:41;;;;;;;11.45;2.42;;;;;;;;;;4983117;28;20069;-47
2022/09/29 08:59:10;;;;;;;8.10;2.38;;;25.20;99.90;;;;;;4973036;28;20031;-48
2022/09/29 09:01:48;;;;;;;3.38;2.20;;;26.30;99.90;;;;;;5007091;28;20054;-50
2022/09/29 09:04:18;;;;;;;4.20;2.05;;;;;;;;;;4992044;28;20054;-51
2022/09/29 09:07:11;;;;;;;5.43;1.92;;;27.50;99.90;;;;;;4980975;28;20023;-50
2022/09/29 09:09:46;;;;;;;5.22;2.05;;;27.00;99.90;;;;;;4977053;28;20159;-50
2022/09/29 09:12:36;;;;;;;5.60;1.95;;;26.50;99.90;;;;;;4978522;28;20483;-49
2022/09/29 09:15:20;;;;;;;4.50;1.83;;;25.80;99.90;;;;;;4985202;28;20031;-50
2022/09/29 09:18:04;;;;;;;3.47;1.45;;;25.80;99.90;;;;;;4981408;28;20035;-49
2022/09/29 09:21:12;;;;;;;3.63;1.50;;;26.40;99.90;;;;;;4969338;28;20041;-50
2022/09/29 09:23:45;;;;;;;12.82;2.00;;;25.90;99.90;;;;;;4985280;28;20518;-49
2022/09/29 09:26:12;;;;;;;3.65;1.48;;;25.60;99.90;;;;;;4943774;28;20097;-49
2022/09/29 09:28:56;;;;;;;9.70;2.17;;;25.30;99.90;;;;;;4978948;28;20056;-49
2022/09/29 09:31:25;;;;;;;6.57;2.13;;;25.30;99.90;;;;;;4989797;28;20030;-49
2022/09/29 09:34:03;;;;;;;5.53;2.05;;;26.20;99.90;;;;;;4986001;28;20495;-49
2022/09/29 09:36:37;;;;;;;6.18;1.88;;;27.10;99.90;;;;;;4980184;28;20031;-50
2022/09/29 09:39:13;;;;;;;6.43;2.25;;;;;;;;;;4979814;28;20026;-50
2022/09/29 09:41:41;;;;;;;5.40;2.10;;;27.30;99.90;;;;;;4976647;28;20433;-50
2022/09/29 09:44:32;;;;;;;6.97;2.30;;;27.20;99.90;;;;;;4985787;28;20033;-49
2022/09/29 09:47:27;;;;;;;4.53;2.10;;;27.80;99.90;;;;;;4985765;28;20490;-51
2022/09/29 09:49:59;;;;;;;5.95;1.98;;;;;;;;;;4982510;28;20062;-50
2022/09/29 09:52:25;;;;;;;;;;;;;;;;;;4970810;28;20038;-49
2022/09/29 09:54:52;;;;;;;5.63;1.95;;;;;;;;;;4981130;28;19917;-50
2022/09/29 09:57:28;;;;;;;4.45;1.70;;;;;;;;;;5000815;28;20043;-49
2022/09/29 10:00:03;;;;;;;4.38;1.70;;;31.50;96.30;;;;;;4991407;28;20035;-50
2022/09/29 10:02:29;;;;;;;4.45;1.40;;;;;;;;;;4982207;28;20039;-50
2022/09/29 10:04:55;;;;;;;4.00;1.38;;;;;;;;;;4983405;28;20029;-50
2022/09/29 10:07:24;;;;;;;4.75;1.33;;;29.60;94.80;;;;;;4981953;28;20035;-49
2022/09/29 10:09:51;;;;;;;4.20;1.75;;;29.10;95.70;;;;;;4973776;28;20045;-50
2022/09/29 10:12:18;;;;;;;4.80;1.67;;;;;;;;;;4960022;28;20395;-49
2022/09/29 10:14:53;;;;;;;5.80;2.30;;;30.40;95.10;;;;;;4966348;28;20055;-50
2022/09/29 10:17:23;;;;;;;2.15;1.42;;;29.60;94.90;;;;;;4971384;28;20066;-50
2022/09/29 10:19:57;;;;;;;3.42;1.65;;;29.90;95.10;;;;;;4968480;28;20425;-50
2022/09/29 10:22:25;;;;;;;2.38;1.48;;;30.10;96.50;;;;;;4964420;28;20039;-49
2022/09/29 10:25:10;;;;;;;3.97;1.65;;;29.30;95.20;;;;;;4966988;28;20058;-50
2022/09/29 10:27:41;;;;;;;3.53;1.60;;;28.50;95.90;;;;;;4968016;28;20022;-49
2022/09/29 10:30:34;;;;;;;4.28;2.35;;;28.80;96.10;;;;;;4974095;28;20038;-50
2022/09/29 10:33:02;;;;;;;4.05;1.60;;;28.70;97.10;;;;;;4962466;28;20463;-50
2022/09/29 10:35:32;;;;;;;3.38;1.67;;;29.30;96.70;;;;;;4967793;28;20038;-49
2022/09/29 10:38:23;;;;;;;2.97;1.55;;;28.20;96.50;;;;;;4957483;28;20042;-50
2022/09/29 10:40:57;;;;;;;2.78;1.48;;;;;;;;;;4973765;28;20035;-50
2022/09/29 10:43:26;;;;;;;5.57;2.15;;;27.00;97.80;;;;;;4966236;28;20047;-49
2022/09/29 10:45:57;;;;;;;3.63;1.77;;;27.20;98.70;;;;;;4980974;28;20034;-49
2022/09/29 10:48:24;;;;;;;5.18;1.70;;;28.20;99.90;;;;;;4985548;28;20045;-49
2022/09/29 10:50:55;;;;;;;5.43;1.70;;;28.60;97.70;;;;;;4978799;28;20038;-49
2022/09/29 10:53:30;;;;;;;3.88;1.60;;;27.90;97.70;;;;;;4986972;28;20034;-49
2022/09/29 10:55:59;;;;;;;2.97;1.85;;;28.10;97.70;;;;;;4984348;28;20070;-49
2022/09/29 10:58:34;;;;;;;6.28;3.45;;;28.70;97.70;;;;;;4976692;28;20055;-49
2022/09/29 11:01:15;;;;;;;4.70;2.70;;;28.70;97.50;;;;;;4979685;28;20038;-50
2022/09/29 11:04:00;;;;;;;5.53;1.60;;;29.30;99.90;;;;;;4971553;28;20475;-49
2022/09/29 11:06:27;;;;;;;4.57;1.77;;;29.20;96.80;;;;;;4981702;28;20057;-50
2022/09/29 11:09:05;;;;;;;3.75;1.60;;;;;;;;;;5001331;28;20042;-49
2022/09/29 11:11:31;;;;;;;3.22;1.73;;;;;;;;;;4981814;28;20363;-50
2022/09/29 11:13:58;;;;;;;3.67;1.70;;;;;;;;;;4976428;28;20023;-50
2022/09/29 11:16:32;;;;;;;5.28;1.60;;;;;;;;;;4972959;28;20367;-50
2022/09/29 11:19:08;;;;;;;4.50;1.92;;;;;;;;;;4972465;28;20031;-51
2022/09/29 11:21:37;;;;;;;3.80;1.60;;;;;;;;;;4970814;28;20034;-49
2022/09/29 11:24:17;;;;;;;3.40;1.58;;;28.90;94.50;;;;;;4975643;28;20038;-50
2022/09/29 11:26:49;;;;;;;2.95;1.73;;;;;;;;;;4988712;28;20051;-49
2022/09/29 11:29:15;;;;;;;;;;;;;;;;;;4966131;28;20038;-48
2022/09/29 11:32:13;;;;;;;4.80;1.55;;;30.70;94.50;;;;;;4972636;28;19910;-49
2022/09/29 11:34:58;;;;;;;2.72;1.30;;;;;;;;;;4973508;28;20490;-48
2022/09/29 11:37:40;;;;;;;3.40;1.80;;;;;;;;;;4977088;28;20034;-48
2022/09/29 11:40:43;;;;;;;6.50;2.03;;;30.10;99.90;;;;;;4984113;28;20039;-49
2022/09/29 11:43:38;;;;;;;5.95;1.85;;;30.10;99.90;;;;;;4978076;28;20438;-49
2022/09/29 11:46:24;;;;;;;6.65;2.20;;;;;;;;;;4985825;28;20060;-48
2022/09/29 11:48:56;;;;;;;4.35;1.48;;;30.90;98.80;;;;;;4975669;28;20122;-49
2022/09/29 11:51:28;;;;;;;6.32;1.60;;;30.50;93.20;;;;;;4980677;28;20767;-49
2022/09/29 11:54:33;;;;;;;25.27;7.78;;;29.30;99.90;;;;;;4972646;28;20030;-49
2022/09/29 11:57:04;;;;;;;2.67;1.60;;;;;;;;;;4980094;28;20026;-49
2022/09/29 11:59:54;;;;;;;5.20;1.83;;;29.40;99.90;;;;;;4975516;28;20510;-49
2022/09/29 12:02:47;;;;;;;5.45;1.80;;;29.50;99.90;;;;;;4975763;28;20498;-48
2022/09/29 12:05:41;;;;;;;4.40;1.98;;;30.10;99.90;;;;;;4977037;28;20503;-49
2022/09/29 12:08:41;;;;;;;3.35;1.75;;;29.80;99.90;;;;;;4972081;28;20049;-48
2022/09/29 12:11:16;;;;;;;5.05;1.77;;;;;;;;;;4972750;28;20043;-49
2022/09/29 12:13:46;;;;;;;7.00;2.10;;;;;;;;;;4957158;28;20058;-48
2022/09/29 12:16:18;;;;;;;4.10;1.87;;;;;;;;;;4973653;28;20030;-49
2022/09/29 12:19:11;;;;;;;11.38;2.28;;;30.90;92.60;;;;;;4971997;28;20276;-48
2022/09/29 12:21:41;;;;;;;3.42;1.63;;;30.80;92.80;;;;;;4971333;28;20125;-48
2022/09/29 12:24:16;;;;;;;5.00;1.75;;;30.20;92.40;;;;;;4969150;28;20050;-50
2022/09/29 12:26:46;;;;;;;5.97;2.00;;;30.70;94.20;;;;;;4975250;28;20031;-51
2022/09/29 12:29:32;;;;;;;3.67;1.83;;;30.90;92.80;;;;;;4974134;28;20557;-53
2022/09/29 12:32:01;;;;;;;2.65;1.60;;;31.10;92.90;;;;;;4970135;28;20422;-51
2022/09/29 12:34:52;;;;;;;6.32;2.10;;;30.30;93.00;;;;;;4967078;28;20039;-52
2022/09/29 12:37:22;;;;;;;4.68;2.00;;;30.00;93.10;;;;;;5002829;28;20077;-51
2022/09/29 12:40:08;;;;;;;4.90;1.85;;;29.40;93.20;;;;;;4975284;28;20065;-51
2022/09/29 12:42:43;;;;;;;3.72;2.38;;;29.50;99.90;;;;;;4966973;28;20078;-51
2022/09/29 12:45:14;;;;;;;5.95;2.00;;;;;;;;;;4981958;28;20031;-50
2022/09/29 12:47:47;;;;;;;5.00;2.25;;;;;;;;;;4984592;28;20457;-50
2022/09/29 12:50:26;;;;;;;4.88;2.03;;;;;;;;;;4975551;28;20062;-50
2022/09/29 12:52:56;;;;;;;4.57;1.85;;;;;;;;;;4946534;28;20050;-50
2022/09/29 12:55:28;;;;;;;3.40;1.80;;;;;;;;;;4973026;28;20095;-50
2022/09/29 12:57:58;;;;;;;6.15;2.10;;;29.30;99.90;;;;;;4966445;28;20422;-53
2022/09/29 13:00:25;;;;;;;5.00;2.13;;;;;;;;;;4970869;28;20402;-53
2022/09/29 13:03:00;;;;;;;6.60;2.50;;;29.00;99.90;;;;;;4979404;28;20046;-54
2022/09/29 13:05:36;;;;;;;4.95;1.85;;;;;;;;;;4975685;28;20129;-59
2022/09/29 13:08:21;;;;;;;3.38;1.85;;;;;;;;;;4973944;28;20085;-54
2022/09/29 13:11:18;;;;;;;4.07;2.15;;;28.60;99.90;;;;;;5002411;28;20039;-54
2022/09/29 13:13:50;;;;;;;5.13;2.05;;;28.50;94.60;;;;;;4972734;28;20050;-54
2022/09/29 13:16:35;;;;;;;5.88;1.95;;;28.60;94.80;;;;;;4975869;28;20113;-56
2022/09/29 13:19:20;;;;;;;5.28;2.03;;;29.20;95.60;;;;;;4975454;28;20038;-54
2022/09/29 13:21:54;;;;;;;4.22;1.95;;;29.20;95.30;;;;;;4960823;28;20046;-55
2022/09/29 13:24:38;;;;;;;4.07;1.92;;;29.10;95.40;;;;;;4988287;28;20177;-54
2022/09/29 13:27:29;;;;;;;3.83;2.05;;;29.40;95.50;;;;;;4963986;28;20058;-56
2022/09/29 13:30:10;;;;;;;4.78;1.60;;;29.00;95.30;;;;;;4971734;28;20038;-56